| time (UTC) | temp F | wind direction | speed MPH | gust MPH | rain 1hr in | rain 24hr in | rain mn in | humidity % | barometer mb |
| 20260508180054 | 44 | 71 | 2.0 | 6.0 | 0.00 | 0.00 | 0.00 | 53 | 1010.3 |
| 20260508174602 | 43 | 99 | 3.0 | 6.0 | 0.00 | 0.00 | 0.00 | 53 | 1010.5 |
| 20260508173043 | 43 | 42 | 1.0 | 7.0 | 0.00 | 0.00 | 0.00 | 56 | 1010.8 |
| 20260508171601 | 42 | 36 | 1.0 | 6.0 | 0.00 | 0.00 | 0.00 | 57 | 1011.0 |
| 20260508170046 | 41 | 293 | 1.0 | 4.0 | 0.00 | 0.00 | 0.00 | 59 | 1011.2 |
| 20260508164504 | 41 | 44 | 1.0 | 7.0 | 0.00 | 0.00 | 0.00 | 59 | 1011.5 |
| 20260508163116 | 41 | 51 | 1.0 | 3.0 | 0.00 | 0.00 | 0.00 | 59 | 1011.8 |
| 20260508161558 | 40 | 82 | 0.0 | 3.0 | 0.00 | 0.00 | 0.00 | 61 | 1012.0 |
| 20260508160052 | 40 | 67 | 1.0 | 3.0 | 0.00 | 0.00 | 0.00 | 63 | 1012.1 |
| 20260508154552 | 39 | 86 | 1.0 | 2.0 | 0.00 | 0.00 | 0.00 | 65 | 1012.2 |
| 20260508153057 | 37 | 63 | 0.0 | 2.0 | 0.00 | 0.00 | 0.00 | 69 | 1012.5 |
| 20260508151554 | 35 | 67 | 0.0 | 0.0 | 0.00 | 0.00 | 0.00 | 72 | 1012.6 |
| 20260508150046 | 34 | 66 | 0.0 | 0.0 | 0.00 | 0.00 | 0.00 | 74 | 1012.8 |
| 20260508144503 | 35 | 66 | 0.0 | 0.0 | 0.00 | 0.00 | 0.00 | 73 | 1013.0 |
| 20260508143052 | 32 | 63 | 0.0 | 0.0 | 0.00 | 0.00 | 0.00 | 78 | 1013.2 |
| 20260508141547 | 30 | 219 | 0.0 | 0.0 | 0.00 | 0.00 | 0.00 | 81 | 1013.4 |
| 20260508140044 | 29 | 219 | 0.0 | 0.0 | 0.00 | 0.00 | 0.00 | 83 | 1013.6 |
| 20260508134601 | 27 | 219 | 0.0 | 0.0 | 0.00 | 0.00 | 0.00 | 85 | 1013.9 |
| 20260508133049 | 27 | 219 | 0.0 | 0.0 | 0.00 | 0.00 | 0.00 | 85 | 1013.9 |
| 20260508131505 | 27 | 229 | 0.0 | 0.0 | 0.00 | 0.00 | 0.00 | 85 | 1014.1 |
| 20260508130107 | 28 | 229 | 0.0 | 0.0 | 0.00 | 0.00 | 0.00 | 83 | 1014.1 |
| 20260508124548 | 29 | 229 | 0.0 | 0.0 | 0.00 | 0.00 | 0.00 | 82 | 1014.5 |
| 20260508123046 | 29 | 229 | 0.0 | 0.0 | 0.00 | 0.00 | 0.00 | 82 | 1014.5 |
| 20260508121559 | 29 | 229 | 0.0 | 1.0 | 0.00 | 0.00 | 0.00 | 80 | 1014.7 |
| 20260508120049 | 30 | 231 | 0.0 | 1.0 | 0.00 | 0.00 | 0.00 | 79 | 1014.8 |
| 20260508114600 | 31 | 11 | 0.0 | 1.0 | 0.00 | 0.00 | 0.00 | 76 | 1015.0 |
| 20260508113056 | 32 | 22 | 0.0 | 2.0 | 0.00 | 0.00 | 0.00 | 76 | 1015.2 |
| 20260508111550 | 33 | 77 | 0.0 | 1.0 | 0.00 | 0.00 | 0.00 | 74 | 1015.4 |
| 20260508110133 | 33 | 77 | 0.0 | 2.0 | 0.00 | 0.00 | 0.00 | 73 | 1015.6 |
| 20260508104603 | 33 | 61 | 0.0 | 1.0 | 0.00 | 0.00 | 0.00 | 74 | 1015.6 |
| 20260508103057 | 33 | 62 | 0.0 | 4.0 | 0.00 | 0.00 | 0.00 | 73 | 1015.8 |
| 20260508101552 | 33 | 32 | 0.0 | 4.0 | 0.00 | 0.00 | 0.00 | 73 | 1015.9 |
| 20260508100057 | 35 | 115 | 0.0 | 0.0 | 0.00 | 0.00 | 0.00 | 69 | 1015.9 |
| 20260508094558 | 35 | 207 | 0.0 | 2.0 | 0.00 | 0.00 | 0.00 | 68 | 1015.9 |
| 20260508093056 | 36 | 237 | 0.0 | 3.0 | 0.00 | 0.00 | 0.00 | 67 | 1016.0 |
| 20260508091559 | 36 | 218 | 0.0 | 2.0 | 0.00 | 0.00 | 0.00 | 67 | 1016.0 |
| 20260508090109 | 36 | 141 | 0.0 | 2.0 | 0.00 | 0.00 | 0.00 | 67 | 1016.1 |
| 20260508084548 | 37 | 193 | 0.0 | 4.0 | 0.00 | 0.00 | 0.00 | 66 | 1016.2 |
| 20260508083045 | 37 | 212 | 1.0 | 5.0 | 0.00 | 0.00 | 0.00 | 67 | 1016.3 |
| 20260508081613 | 37 | 214 | 1.0 | 9.0 | 0.00 | 0.00 | 0.00 | 67 | 1016.6 |
| 20260508080054 | 37 | 211 | 1.0 | 5.0 | 0.00 | 0.00 | 0.00 | 68 | 1016.5 |
| 20260508074545 | 37 | 169 | 0.0 | 5.0 | 0.00 | 0.00 | 0.00 | 68 | 1016.9 |
| 20260508073101 | 37 | 231 | 1.0 | 3.0 | 0.00 | 0.00 | 0.00 | 69 | 1017.0 |
| 20260508071549 | 37 | 264 | 0.0 | 2.0 | 0.00 | 0.00 | 0.00 | 67 | 1016.9 |
| 20260508070046 | 38 | 138 | 0.0 | 4.0 | 0.00 | 0.00 | 0.00 | 67 | 1017.0 |
| 20260508064557 | 38 | 113 | 1.0 | 4.0 | 0.00 | 0.00 | 0.00 | 66 | 1017.1 |
| 20260508063053 | 39 | 129 | 0.0 | 7.0 | 0.00 | 0.00 | 0.00 | 65 | 1017.1 |
| 20260508061548 | 39 | 212 | 1.0 | 6.0 | 0.00 | 0.00 | 0.00 | 64 | 1017.2 |
| 20260508060058 | 39 | 150 | 1.0 | 3.0 | 0.00 | 0.00 | 0.00 | 63 | 1017.3 |
| 20260508054638 | 40 | 111 | 0.0 | 6.0 | 0.00 | 0.00 | 0.00 | 62 | 1017.2 |
| 20260508053148 | 40 | 176 | 3.0 | 11.0 | 0.00 | 0.00 | 0.00 | 61 | 1017.3 |
| 20260508051502 | 41 | 226 | 2.0 | 8.0 | 0.00 | 0.00 | 0.00 | 61 | 1017.3 |
| 20260508050057 | 42 | 223 | 3.0 | 7.0 | 0.00 | 0.00 | 0.00 | 61 | 1017.3 |
| 20260508044559 | 42 | 124 | 4.0 | 14.0 | 0.00 | 0.00 | 0.00 | 60 | 1017.4 |
| 20260508043059 | 42 | 217 | 5.0 | 9.0 | 0.00 | 0.00 | 0.00 | 60 | 1017.5 |
| 20260508041601 | 43 | 245 | 2.0 | 12.0 | 0.00 | 0.00 | 0.00 | 59 | 1017.6 |
| 20260508040054 | 43 | 239 | 3.0 | 11.0 | 0.00 | 0.00 | 0.00 | 57 | 1017.4 |
| 20260508034506 | 43 | 220 | 4.0 | 18.0 | 0.00 | 0.00 | 0.00 | 55 | 1017.5 |
| 20260508033100 | 43 | 199 | 5.0 | 10.0 | 0.00 | 0.00 | 0.00 | 55 | 1017.6 |
| 20260508031601 | 44 | 258 | 4.0 | 14.0 | 0.00 | 0.00 | 0.00 | 55 | 1017.8 |
| 20260508030106 | 44 | 248 | 7.0 | 15.0 | 0.00 | 0.00 | 0.00 | 55 | 1017.8 |
| 20260508024505 | 44 | 229 | 5.0 | 14.0 | 0.00 | 0.00 | 0.00 | 53 | 1017.9 |
| 20260508023052 | 45 | 186 | 6.0 | 13.0 | 0.00 | 0.00 | 0.00 | 53 | 1017.9 |
| 20260508021609 | 45 | 152 | 7.0 | 16.0 | 0.00 | 0.00 | 0.00 | 53 | 1017.9 |
| 20260508020041 | 45 | 188 | 9.0 | 15.0 | 0.00 | 0.00 | 0.00 | 53 | 1017.9 |
| 20260508014506 | 46 | 209 | 4.0 | 13.0 | 0.00 | 0.00 | 0.00 | 54 | 1017.9 |
| 20260508013111 | 46 | 264 | 6.0 | 14.0 | 0.00 | 0.00 | 0.00 | 51 | 1018.0 |
| 20260508011601 | 47 | 290 | 3.0 | 16.0 | 0.00 | 0.00 | 0.00 | 51 | 1018.2 |
| 20260508010044 | 46 | 120 | 7.0 | 18.0 | 0.00 | 0.00 | 0.00 | 51 | 1018.1 |
| 20260508004504 | 46 | 132 | 7.0 | 21.0 | 0.00 | 0.00 | 0.00 | 50 | 1018.3 |
| 20260508003101 | 47 | 214 | 6.0 | 16.0 | 0.00 | 0.00 | 0.00 | 50 | 1018.4 |
| 20260508001549 | 47 | 148 | 8.0 | 17.0 | 0.00 | 0.00 | 0.00 | 50 | 1018.2 |
| 20260508000003 | 48 | 170 | 7.0 | 16.0 | 0.00 | 0.00 | 0.00 | 51 | 1018.5 |
| 20260507234554 | 48 | 139 | 6.0 | 15.0 | 0.00 | 0.00 | 0.00 | 52 | 1018.5 |
| 20260507233045 | 47 | 87 | 6.0 | 20.0 | 0.00 | 0.00 | 0.00 | 51 | 1018.5 |
| 20260507231502 | 47 | 214 | 7.0 | 20.0 | 0.00 | 0.00 | 0.00 | 52 | 1018.8 |
| 20260507230050 | 47 | 147 | 7.0 | 16.0 | 0.00 | 0.00 | 0.00 | 53 | 1018.9 |
| 20260507224601 | 48 | 248 | 7.0 | 20.0 | 0.00 | 0.00 | 0.00 | 52 | 1019.0 |
| 20260507223004 | 47 | 259 | 8.0 | 22.0 | 0.00 | 0.00 | 0.00 | 53 | 1019.0 |
| 20260507221555 | 48 | 127 | 11.0 | 20.0 | 0.00 | 0.00 | 0.00 | 53 | 1018.9 |
| 20260507220048 | 46 | 151 | 8.0 | 18.0 | 0.00 | 0.00 | 0.00 | 54 | 1018.9 |
| 20260507214506 | 47 | 173 | 13.0 | 22.0 | 0.00 | 0.00 | 0.00 | 53 | 1019.0 |
| 20260507213055 | 46 | 150 | 9.0 | 18.0 | 0.00 | 0.00 | 0.00 | 53 | 1019.1 |
| 20260507211553 | 47 | 179 | 9.0 | 22.0 | 0.00 | 0.00 | 0.00 | 54 | 1018.9 |
| 20260507210107 | 46 | 184 | 7.0 | 21.0 | 0.00 | 0.00 | 0.00 | 55 | 1019.0 |
| 20260507204502 | 47 | 96 | 6.0 | 23.0 | 0.00 | 0.00 | 0.00 | 55 | 1019.0 |
| 20260507203056 | 46 | 180 | 8.0 | 18.0 | 0.00 | 0.00 | 0.00 | 55 | 1019.2 |
| 20260507201547 | 47 | 117 | 5.0 | 15.0 | 0.00 | 0.00 | 0.00 | 54 | 1019.0 |
| 20260507200110 | 46 | 212 | 8.0 | 18.0 | 0.00 | 0.00 | 0.00 | 53 | 1019.0 |
| 20260507194556 | 46 | 183 | 8.0 | 19.0 | 0.00 | 0.00 | 0.00 | 55 | 1019.0 |
| 20260507193107 | 46 | 210 | 8.0 | 17.0 | 0.00 | 0.00 | 0.00 | 54 | 1019.1 |
| 20260507191515 | 47 | 158 | 10.0 | 22.0 | 0.00 | 0.00 | 0.00 | 52 | 1019.4 |
| 20260507190056 | 46 | 219 | 5.0 | 19.0 | 0.00 | 0.00 | 0.00 | 56 | 1019.2 |
| 20260507184550 | 46 | 210 | 11.0 | 21.0 | 0.00 | 0.00 | 0.00 | 55 | 1019.3 |
| 20260507183003 | 45 | 120 | 9.0 | 22.0 | 0.00 | 0.00 | 0.00 | 56 | 1019.2 |
| 20260507181555 | 44 | 162 | 7.0 | 19.0 | 0.00 | 0.00 | 0.00 | 56 | 1019.2 |